createdAt,value
2023-04-09T02:29:22.230Z,7.31
2023-04-09T02:30:54.247Z,7.29
2023-04-09T02:32:27.049Z,7.28
2023-04-09T02:33:59.146Z,7.27
2023-04-09T02:35:31.264Z,7.26
2023-04-09T02:37:03.372Z,7.26
2023-04-09T02:38:35.461Z,7.28
2023-04-09T02:40:08.159Z,7.28
2023-04-09T02:41:40.440Z,7.29
2023-04-09T02:43:12.660Z,7.29
2023-04-09T02:44:44.851Z,7.30
2023-04-09T02:46:17.091Z,7.29
2023-04-09T02:47:49.389Z,7.32
2023-04-09T02:49:21.543Z,7.33
2023-04-09T02:50:53.780Z,7.34
2023-04-09T02:52:26.414Z,7.35
2023-04-09T02:53:58.505Z,7.35
2023-04-09T02:55:30.722Z,7.36
2023-04-09T02:57:02.698Z,7.33
2023-04-09T02:58:34.836Z,7.33
2023-04-09T03:00:07.744Z,7.33
2023-04-09T03:01:39.899Z,7.32
2023-04-09T03:03:12.298Z,7.33
2023-04-09T03:04:44.636Z,7.32
2023-04-09T03:06:16.824Z,7.33
2023-04-09T03:07:51.982Z,7.33
2023-04-09T03:09:24.178Z,7.32
2023-04-09T03:10:56.332Z,7.33
2023-04-09T03:12:28.452Z,7.35
2023-04-09T03:14:00.806Z,7.36
2023-04-09T03:15:32.897Z,7.36
2023-04-09T03:17:05.016Z,7.36
2023-04-09T03:18:37.573Z,7.35
2023-04-09T03:20:09.977Z,7.35
2023-04-09T03:21:42.118Z,7.33
2023-04-09T03:23:14.257Z,7.32
2023-04-09T03:24:46.650Z,7.33
2023-04-09T03:26:18.732Z,7.32
2023-04-09T03:27:50.868Z,7.32
2023-04-09T03:29:22.960Z,7.32
2023-04-09T03:30:55.201Z,7.34
2023-04-09T03:32:27.649Z,7.34
2023-04-09T03:33:59.847Z,7.35
2023-04-09T03:35:32.039Z,7.37
2023-04-09T03:37:04.168Z,7.38
2023-04-09T03:38:36.509Z,7.40
2023-04-09T03:40:09.150Z,7.43
2023-04-09T03:41:41.243Z,7.42
2023-04-09T03:43:13.453Z,7.44
2023-04-09T03:44:45.570Z,7.45
2023-04-09T03:46:18.479Z,7.49
2023-04-09T03:47:50.801Z,7.47
2023-04-09T03:49:23.054Z,7.46
2023-04-09T03:50:55.116Z,7.45
2023-04-09T03:52:27.373Z,7.46
2023-04-09T03:53:59.700Z,7.44
2023-04-09T03:55:31.814Z,7.44
2023-04-09T03:57:04.962Z,7.43
2023-04-09T03:58:37.726Z,7.44
2023-04-09T04:00:10.152Z,7.44
2023-04-09T04:01:42.380Z,7.43
2023-04-09T04:03:16.701Z,7.44
2023-04-09T04:04:48.946Z,7.43
2023-04-09T04:06:21.406Z,7.45
2023-04-09T04:07:53.793Z,7.44
2023-04-09T04:09:26.066Z,7.44
2023-04-09T04:11:04.408Z,7.49
2023-04-09T04:12:36.481Z,7.46
2023-04-09T04:14:08.516Z,7.47
2023-04-09T04:15:44.392Z,7.48
2023-04-09T04:17:16.675Z,7.46
2023-04-09T04:18:48.790Z,7.47
2023-04-09T04:20:21.238Z,7.46
2023-04-09T04:21:53.374Z,7.45
2023-04-09T04:23:25.622Z,7.47
2023-04-09T04:24:57.758Z,7.44
2023-04-09T04:26:29.926Z,7.43
2023-04-09T04:28:02.080Z,7.42
2023-04-09T04:29:34.141Z,7.41
2023-04-09T04:31:11.098Z,7.46
2023-04-09T04:32:43.337Z,7.41
2023-04-09T04:34:15.700Z,7.41
2023-04-09T04:35:48.121Z,7.41
2023-04-09T04:37:20.498Z,7.43
2023-04-09T04:38:52.953Z,7.43
2023-04-09T04:40:25.404Z,7.45
2023-04-09T04:41:57.692Z,7.47
2023-04-09T04:43:29.925Z,7.48
2023-04-09T04:45:02.431Z,7.48
2023-04-09T04:46:34.556Z,7.48
2023-04-09T04:48:06.743Z,7.50
2023-04-09T04:49:38.826Z,7.52
2023-04-09T04:51:11.017Z,7.53
2023-04-09T04:52:43.140Z,7.55
2023-04-09T04:54:15.207Z,7.57
2023-04-09T04:55:47.294Z,7.59
2023-04-09T04:57:19.545Z,7.60
2023-04-09T04:58:54.136Z,7.59
2023-04-09T05:00:26.482Z,7.61
2023-04-09T05:01:58.618Z,7.61
2023-04-09T05:03:30.953Z,7.62
2023-04-09T05:05:03.332Z,7.62
2023-04-09T05:06:35.457Z,7.66
2023-04-09T05:08:07.666Z,7.66
2023-04-09T05:09:39.722Z,7.68
2023-04-09T05:11:13.291Z,7.72
2023-04-09T05:12:45.519Z,7.71
2023-04-09T05:14:17.737Z,7.75
2023-04-09T05:15:49.805Z,7.77
2023-04-09T05:17:21.917Z,7.77
2023-04-09T05:18:54.484Z,7.80
2023-04-09T05:20:28.185Z,7.81
2023-04-09T05:22:00.336Z,7.78
2023-04-09T05:23:32.443Z,7.82
2023-04-09T05:25:05.024Z,7.81
2023-04-09T05:26:37.155Z,7.84
2023-04-09T05:28:11.641Z,7.84
2023-04-09T05:29:43.893Z,7.90
2023-04-09T05:31:16.626Z,7.93
2023-04-09T05:32:48.876Z,7.97
2023-04-09T05:34:21.358Z,7.98
2023-04-09T05:35:53.615Z,8.05
2023-04-09T05:37:26.178Z,8.11
2023-04-09T05:38:58.342Z,8.14
2023-04-09T05:40:30.774Z,8.18
2023-04-09T05:42:02.961Z,8.18
2023-04-09T05:43:35.039Z,8.17
2023-04-09T05:45:07.861Z,8.17
2023-04-09T05:46:39.997Z,8.19
2023-04-09T05:48:12.211Z,8.18
2023-04-09T05:49:44.330Z,8.19
2023-04-09T05:51:16.859Z,8.21
2023-04-09T05:52:48.911Z,8.26
2023-04-09T05:54:21.058Z,8.26
2023-04-09T05:55:53.294Z,8.29
2023-04-09T05:57:25.447Z,8.29
2023-04-09T05:58:57.621Z,8.35
2023-04-09T06:00:29.879Z,8.39
2023-04-09T06:02:02.632Z,8.44
2023-04-09T06:03:34.922Z,8.48
2023-04-09T06:05:07.493Z,8.53
2023-04-09T06:06:39.737Z,8.57
2023-04-09T06:08:13.190Z,8.62
2023-04-09T06:09:45.493Z,8.74
2023-04-09T06:11:18.338Z,8.70
2023-04-09T06:12:50.722Z,8.70
2023-04-09T06:14:22.841Z,8.76
2023-04-09T06:15:55.368Z,8.79
2023-04-09T06:17:27.591Z,8.81
2023-04-09T06:18:59.703Z,8.85
2023-04-09T06:20:31.843Z,8.88
2023-04-09T06:22:03.989Z,8.87
2023-04-09T06:23:37.236Z,8.92
2023-04-09T06:25:09.434Z,8.94
2023-04-09T06:26:41.987Z,8.97
2023-04-09T06:29:48.012Z,8.94
2023-04-09T06:31:20.173Z,9.02
2023-04-09T06:32:54.930Z,9.02
2023-04-09T06:34:27.547Z,9.02
2023-04-09T06:35:59.687Z,9.04
2023-04-09T06:37:31.814Z,9.07
2023-04-09T06:39:04.385Z,9.04
2023-04-09T06:40:40.112Z,9.15
2023-04-09T06:42:12.187Z,9.10
2023-04-09T06:43:44.237Z,9.14
2023-04-09T06:45:16.613Z,9.13
2023-04-09T06:46:48.780Z,9.14
2023-04-09T06:48:21.192Z,9.11
2023-04-09T06:49:53.294Z,9.16
2023-04-09T06:51:25.478Z,9.14
2023-04-09T06:52:58.053Z,9.17
2023-04-09T06:54:30.157Z,9.17
2023-04-09T06:56:02.310Z,9.22
2023-04-09T06:59:13.761Z,9.27
2023-04-09T07:00:45.850Z,9.26
2023-04-09T07:02:18.081Z,9.28
2023-04-09T07:03:50.593Z,9.35
2023-04-09T07:05:23.090Z,9.34
2023-04-09T07:06:55.644Z,9.36
2023-04-09T07:08:29.120Z,9.39
2023-04-09T07:10:01.906Z,9.52
2023-04-09T07:11:34.023Z,9.48
2023-04-09T07:13:06.383Z,9.46
2023-04-09T07:14:38.418Z,9.45
2023-04-09T07:16:13.687Z,9.45
2023-04-09T07:17:45.930Z,9.43
2023-04-09T07:19:18.304Z,9.37
2023-04-09T07:20:50.458Z,9.40
2023-04-09T07:22:23.408Z,9.44
2023-04-09T07:23:56.797Z,9.45
2023-04-09T07:25:28.978Z,9.47
2023-04-09T07:27:04.495Z,9.47
2023-04-09T07:28:37.045Z,9.46
2023-04-09T07:30:10.966Z,9.40
2023-04-09T07:31:45.300Z,9.37
2023-04-09T07:33:17.465Z,9.27
2023-04-09T07:34:52.022Z,9.34
2023-04-09T07:36:24.278Z,9.37
2023-04-09T07:37:56.495Z,9.42
2023-04-09T07:39:28.861Z,9.46
2023-04-09T07:41:01.723Z,9.44
2023-04-09T07:42:33.928Z,9.48
2023-04-09T07:44:06.776Z,9.53
2023-04-09T07:45:39.081Z,9.53
2023-04-09T07:47:13.243Z,9.53
2023-04-09T07:48:47.169Z,9.57
2023-04-09T07:50:20.463Z,9.59
2023-04-09T07:51:52.611Z,9.64
2023-04-09T07:53:24.968Z,9.63
2023-04-09T07:54:57.822Z,9.68
2023-04-09T07:56:30.017Z,9.71
2023-04-09T07:58:02.109Z,9.76
2023-04-09T07:59:35.581Z,9.82
2023-04-09T08:01:07.523Z,9.89
2023-04-09T08:02:39.795Z,9.87
2023-04-09T08:04:13.716Z,9.88
2023-04-09T08:05:46.037Z,9.93
2023-04-09T08:07:18.335Z,9.93
2023-04-09T08:08:50.690Z,10.01
2023-04-09T08:10:23.108Z,10.07
2023-04-09T08:11:55.311Z,10.06
2023-04-09T08:13:27.437Z,10.13
2023-04-09T08:14:59.516Z,10.12
2023-04-09T08:16:31.694Z,10.12
2023-04-09T08:18:04.677Z,10.11
2023-04-09T08:19:37.112Z,10.03
2023-04-09T08:21:09.982Z,9.88
2023-04-09T08:22:42.539Z,9.95
2023-04-09T08:24:14.823Z,9.98
2023-04-09T08:25:47.066Z,9.99
2023-04-09T08:27:19.671Z,9.99
2023-04-09T08:28:52.686Z,9.97
2023-04-09T08:30:25.081Z,9.98
2023-04-09T08:31:57.723Z,9.99
2023-04-09T08:33:30.679Z,10.02
2023-04-09T08:35:02.806Z,10.05
2023-04-09T08:36:36.141Z,10.07
2023-04-09T08:38:08.276Z,10.10
2023-04-09T08:39:40.375Z,10.15
2023-04-09T08:41:18.896Z,10.19
2023-04-09T08:42:58.647Z,10.19
2023-04-09T08:44:33.337Z,10.22
2023-04-09T08:46:06.534Z,10.28
2023-04-09T08:47:38.963Z,10.11
2023-04-09T08:49:14.710Z,10.22
2023-04-09T08:50:47.193Z,10.32
2023-04-09T08:52:22.381Z,10.35
2023-04-09T08:54:01.391Z,10.46
2023-04-09T08:55:35.489Z,10.52
2023-04-09T08:57:08.119Z,10.60
2023-04-09T08:58:45.700Z,10.63
2023-04-09T09:00:17.923Z,10.53
2023-04-09T09:01:54.832Z,10.51
2023-04-09T09:03:27.401Z,10.65
2023-04-09T09:05:02.482Z,10.76
2023-04-09T09:06:39.211Z,10.86
2023-04-09T09:08:13.179Z,10.92
2023-04-09T09:09:59.265Z,11.02
2023-04-09T09:11:31.683Z,11.05
2023-04-09T09:13:17.123Z,11.06
2023-04-09T09:14:51.573Z,11.08
2023-04-09T09:16:23.749Z,11.07
2023-04-09T09:18:01.232Z,11.15
2023-04-09T09:19:34.069Z,11.18
2023-04-09T09:21:18.134Z,11.26
2023-04-09T09:22:55.177Z,11.34
2023-04-09T09:24:28.217Z,11.32
2023-04-09T09:26:00.538Z,11.34
2023-04-09T09:27:40.846Z,11.39
2023-04-09T09:29:12.958Z,11.27
2023-04-09T09:32:22.367Z,11.21
2023-04-09T09:33:54.730Z,11.25
2023-04-09T09:35:27.096Z,11.37
2023-04-09T09:36:59.380Z,11.41
2023-04-09T09:38:31.890Z,11.46
2023-04-09T09:40:04.998Z,11.37
2023-04-09T09:41:37.541Z,11.23
2023-04-09T09:43:09.752Z,11.20
2023-04-09T09:44:41.944Z,11.07
2023-04-09T09:46:14.226Z,11.05
2023-04-09T09:47:46.984Z,11.11
2023-04-09T09:49:19.165Z,11.14
2023-04-09T09:50:52.582Z,11.16
2023-04-09T09:52:27.913Z,11.17
2023-04-09T09:54:00.173Z,11.12
2023-04-09T09:55:39.560Z,11.22
2023-04-09T09:57:14.922Z,11.32
2023-04-09T09:58:56.090Z,11.41
2023-04-09T10:00:29.782Z,11.45
2023-04-09T10:02:05.657Z,11.49
2023-04-09T10:03:40.071Z,11.53
2023-04-09T10:05:12.220Z,11.60
2023-04-09T10:06:45.442Z,11.66
2023-04-09T10:08:18.354Z,11.73
2023-04-09T10:09:51.988Z,11.77
2023-04-09T10:11:24.872Z,11.82
2023-04-09T10:12:57.199Z,11.88
2023-04-09T10:14:29.858Z,11.84
2023-04-09T10:16:02.801Z,11.86
2023-04-09T10:17:35.069Z,11.99
2023-04-09T10:19:10.322Z,12.01
2023-04-09T10:20:49.374Z,12.21
2023-04-09T10:22:24.113Z,12.16
2023-04-09T10:23:56.319Z,12.12
2023-04-09T10:25:29.012Z,12.17
2023-04-09T10:27:12.119Z,12.03
2023-04-09T10:28:45.906Z,12.02
2023-04-09T10:30:34.694Z,12.10
2023-04-09T10:32:07.778Z,12.08
2023-04-09T10:33:40.152Z,12.12
2023-04-09T10:35:12.237Z,12.10
2023-04-09T10:36:45.731Z,12.02
2023-04-09T10:38:17.869Z,11.91
2023-04-09T10:39:51.985Z,11.95
2023-04-09T10:41:29.076Z,11.98
2023-04-09T10:43:02.336Z,11.90
2023-04-09T10:44:36.469Z,11.91
2023-04-09T10:46:30.196Z,11.94
2023-04-09T10:48:03.714Z,11.70
2023-04-09T10:49:38.815Z,11.82
2023-04-09T10:51:19.658Z,11.97
2023-04-09T10:53:00.656Z,12.05
2023-04-09T10:54:35.625Z,12.00
2023-04-09T10:56:15.880Z,11.99
2023-04-09T10:57:47.972Z,11.99
2023-04-09T10:59:20.110Z,11.92
2023-04-09T11:00:54.337Z,12.03
2023-04-09T11:02:32.384Z,12.17
2023-04-09T11:04:17.565Z,12.25
2023-04-09T11:06:01.436Z,12.28
2023-04-09T11:07:36.134Z,12.32
2023-04-09T11:09:08.333Z,12.32
2023-04-09T11:10:42.490Z,12.23
2023-04-09T11:12:14.714Z,12.20
2023-04-09T11:13:46.801Z,12.22
2023-04-09T11:15:20.282Z,12.20
2023-04-09T11:16:52.498Z,12.17
2023-04-09T11:18:26.573Z,12.21
2023-04-09T11:19:58.952Z,12.18
2023-04-09T11:21:31.849Z,12.17
2023-04-09T11:23:04.093Z,12.23
2023-04-09T11:24:43.140Z,12.30
2023-04-09T11:26:15.293Z,12.30
2023-04-09T11:27:48.036Z,12.30
2023-04-09T11:29:20.165Z,12.28
2023-04-09T11:30:52.868Z,12.25
2023-04-09T11:32:31.174Z,12.34
2023-04-09T11:34:03.755Z,12.31
2023-04-09T11:35:37.183Z,12.27
2023-04-09T11:37:14.795Z,12.42
2023-04-09T11:38:50.671Z,12.39
2023-04-09T11:40:27.119Z,12.34
2023-04-09T11:41:59.366Z,12.35
2023-04-09T11:43:31.527Z,12.25
2023-04-09T11:45:04.204Z,12.32
2023-04-09T11:46:36.688Z,12.35
2023-04-09T11:48:09.046Z,12.43
2023-04-09T11:49:42.281Z,12.50
2023-04-09T11:51:14.363Z,12.46
2023-04-09T11:52:47.356Z,12.52
2023-04-09T11:54:19.539Z,12.61
2023-04-09T11:55:53.019Z,12.68
2023-04-09T11:57:25.151Z,12.68
2023-04-09T11:58:57.537Z,12.50
2023-04-09T12:00:30.084Z,12.54
2023-04-09T12:02:03.929Z,12.62
2023-04-09T12:03:37.962Z,12.64
2023-04-09T12:05:12.461Z,12.75
2023-04-09T12:06:45.312Z,12.82
2023-04-09T12:08:18.873Z,12.82
2023-04-09T12:09:51.245Z,12.82
2023-04-09T12:11:29.537Z,12.92
2023-04-09T12:13:03.776Z,12.97
2023-04-09T12:14:36.003Z,13.02
2023-04-09T12:16:08.362Z,13.18
2023-04-09T12:17:40.592Z,13.27
2023-04-09T12:19:15.036Z,13.39
2023-04-09T12:20:50.014Z,13.33
2023-04-09T12:22:22.391Z,13.35
2023-04-09T12:23:54.579Z,13.51
2023-04-09T12:25:28.073Z,13.49
2023-04-09T12:27:00.260Z,13.56
2023-04-09T12:28:32.616Z,13.69
2023-04-09T12:30:05.358Z,13.79
2023-04-09T12:31:37.871Z,13.81
2023-04-09T12:33:11.123Z,13.90
2023-04-09T12:34:43.890Z,13.95
2023-04-09T12:36:16.000Z,14.09
2023-04-09T12:37:48.411Z,14.14
2023-04-09T12:39:21.458Z,14.22
2023-04-09T12:40:53.680Z,14.16
2023-04-09T12:42:25.899Z,13.99
2023-04-09T12:43:58.252Z,14.00
2023-04-09T12:45:31.360Z,14.02
2023-04-09T12:47:03.660Z,14.06
2023-04-09T12:48:35.827Z,14.01
2023-04-09T12:50:09.428Z,14.00
2023-04-09T12:51:42.124Z,13.91
2023-04-09T12:53:14.376Z,13.75
2023-04-09T12:54:47.940Z,13.84
2023-04-09T12:56:20.900Z,13.94
2023-04-09T12:57:53.623Z,14.02
2023-04-09T12:59:25.917Z,14.08
2023-04-09T13:00:58.364Z,14.11
2023-04-09T13:02:30.758Z,14.21
2023-04-09T13:04:03.298Z,14.33
2023-04-09T13:05:38.414Z,14.34
2023-04-09T13:07:10.553Z,14.34
2023-04-09T13:08:42.740Z,14.28
2023-04-09T13:10:14.934Z,14.29
2023-04-09T13:11:47.136Z,14.33
2023-04-09T13:13:19.439Z,14.35
2023-04-09T13:14:53.101Z,14.36
2023-04-09T13:16:25.220Z,14.25
2023-04-09T13:19:42.728Z,14.31
2023-04-09T13:21:19.126Z,14.27
2023-04-09T13:22:52.864Z,14.25
2023-04-09T13:24:25.155Z,14.27
2023-04-09T13:25:57.758Z,14.22
2023-04-09T13:27:29.952Z,14.23
2023-04-09T13:29:02.726Z,14.16
2023-04-09T13:30:34.999Z,14.00
2023-04-09T13:32:11.422Z,13.58
2023-04-09T13:33:43.749Z,13.39
2023-04-09T13:35:16.094Z,13.21
2023-04-09T13:36:48.254Z,12.94
2023-04-09T13:38:20.414Z,12.75
2023-04-09T13:39:52.509Z,12.43
2023-04-09T13:41:29.794Z,12.12
2023-04-09T13:43:02.957Z,11.54
2023-04-09T13:44:35.656Z,11.41
2023-04-09T13:46:07.901Z,11.45
2023-04-09T13:47:40.065Z,11.41
2023-04-09T13:49:12.369Z,11.40
2023-04-09T13:50:47.077Z,11.41
2023-04-09T13:52:19.519Z,11.33
2023-04-09T13:53:52.894Z,11.27
2023-04-09T13:55:25.200Z,11.21
2023-04-09T13:56:57.528Z,11.03
2023-04-09T13:58:29.779Z,10.93
2023-04-09T14:00:04.936Z,10.76
2023-04-09T14:01:37.590Z,10.67
2023-04-09T14:03:10.329Z,10.63
2023-04-09T14:04:42.598Z,10.55
2023-04-09T14:06:14.849Z,10.46
2023-04-09T14:07:47.025Z,10.40
2023-04-09T14:09:19.313Z,10.28
2023-04-09T14:10:51.938Z,10.24
2023-04-09T14:12:24.144Z,10.19
2023-04-09T14:13:56.497Z,10.17
2023-04-09T14:15:28.687Z,10.12
2023-04-09T14:17:00.843Z,10.13
2023-04-09T14:18:33.067Z,10.07
2023-04-09T14:20:05.481Z,10.12
2023-04-09T14:21:37.738Z,10.09
2023-04-09T14:23:10.148Z,10.12
2023-04-09T14:24:42.252Z,10.10
2023-04-09T14:26:14.487Z,10.06
2023-04-09T14:27:47.308Z,10.06
2023-04-09T14:29:20.392Z,10.03
2023-04-09T14:30:52.969Z,9.90
2023-04-09T14:32:25.163Z,9.89
2023-04-09T14:33:57.410Z,9.88
2023-04-09T14:35:29.727Z,9.83
2023-04-09T14:37:02.014Z,9.78
2023-04-09T14:38:35.150Z,9.82
2023-04-09T14:40:10.350Z,9.80
2023-04-09T14:41:42.796Z,9.75
2023-04-09T14:43:14.986Z,9.82
2023-04-09T14:44:47.157Z,9.69
2023-04-09T14:46:20.634Z,9.59
2023-04-09T14:47:55.310Z,9.57
2023-04-09T14:49:27.600Z,9.56
2023-04-09T14:50:59.801Z,9.58
2023-04-09T14:54:03.771Z,9.61
2023-04-09T14:55:38.564Z,9.72
2023-04-09T14:57:10.764Z,9.71
2023-04-09T14:58:42.980Z,9.76
2023-04-09T15:00:15.495Z,9.81
2023-04-09T15:01:47.829Z,9.84
2023-04-09T15:03:20.202Z,9.86
2023-04-09T15:04:52.489Z,9.90
2023-04-09T15:06:24.842Z,9.93
2023-04-09T15:07:57.911Z,9.99
2023-04-09T15:09:30.022Z,9.96
2023-04-09T15:11:02.271Z,9.96
2023-04-09T15:12:34.592Z,9.97
2023-04-09T15:14:06.757Z,9.96
2023-04-09T15:15:41.931Z,9.98
2023-04-09T15:17:14.094Z,9.92
2023-04-09T15:18:47.897Z,9.91
2023-04-09T15:20:20.149Z,9.86
2023-04-09T15:21:52.275Z,9.82
2023-04-09T15:23:24.477Z,9.72
2023-04-09T15:24:56.784Z,9.68
2023-04-09T15:26:29.025Z,9.76
2023-04-09T15:28:02.803Z,9.81
2023-04-09T15:29:35.134Z,9.82
2023-04-09T15:31:07.710Z,9.85
2023-04-09T15:32:39.890Z,9.87
2023-04-09T15:34:12.087Z,9.88
2023-04-09T15:35:44.484Z,9.89
2023-04-09T15:37:16.776Z,9.86
2023-04-09T15:38:48.863Z,9.84
2023-04-09T15:40:21.039Z,9.85
2023-04-09T15:41:53.256Z,9.86
2023-04-09T15:43:25.726Z,9.87
2023-04-09T15:44:57.833Z,9.86
2023-04-09T15:46:29.933Z,9.90
2023-04-09T15:48:02.092Z,9.88
2023-04-09T15:49:37.156Z,9.91
2023-04-09T15:51:09.647Z,9.91
2023-04-09T15:52:42.001Z,9.89
2023-04-09T15:54:14.237Z,9.88
2023-04-09T15:55:46.865Z,9.89
2023-04-09T15:57:19.822Z,9.90
2023-04-09T15:58:52.174Z,9.88
2023-04-09T16:00:24.670Z,9.89
2023-04-09T16:01:56.850Z,9.89
2023-04-09T16:03:28.998Z,9.89
2023-04-09T16:05:01.087Z,9.87
2023-04-09T16:06:33.390Z,9.85
2023-04-09T16:08:05.553Z,9.86
2023-04-09T16:09:37.662Z,9.87
2023-04-09T16:11:10.007Z,9.85
2023-04-09T16:12:42.306Z,9.85
2023-04-09T16:14:14.396Z,9.84
2023-04-09T16:15:47.339Z,9.83
2023-04-09T16:17:19.485Z,9.83
2023-04-09T16:18:51.901Z,9.83
2023-04-09T16:20:24.180Z,9.83
2023-04-09T16:21:56.318Z,9.84
2023-04-09T16:23:30.489Z,9.85
2023-04-09T16:25:03.129Z,9.81
2023-04-09T16:26:35.294Z,9.84
2023-04-09T16:28:07.426Z,9.84
2023-04-09T16:29:39.557Z,9.82
2023-04-09T16:31:11.731Z,9.81
2023-04-09T16:32:43.901Z,9.81
2023-04-09T16:34:16.144Z,9.80
2023-04-09T16:35:48.353Z,9.76
2023-04-09T16:37:20.766Z,9.76
2023-04-09T16:38:53.361Z,9.78
2023-04-09T16:40:25.659Z,9.75
2023-04-09T16:41:58.700Z,9.75
2023-04-09T16:43:31.077Z,9.72
2023-04-09T16:45:04.930Z,9.74
2023-04-09T16:46:37.051Z,9.73
2023-04-09T16:48:12.789Z,9.73
2023-04-09T16:49:45.029Z,9.73
2023-04-09T16:52:50.201Z,9.66
2023-04-09T16:54:22.333Z,9.63
2023-04-09T16:55:54.556Z,9.62
2023-04-09T16:57:26.840Z,9.61
2023-04-09T16:58:59.143Z,9.60
2023-04-09T17:00:31.302Z,9.60
2023-04-09T17:02:03.575Z,9.59
2023-04-09T17:03:36.056Z,9.57
2023-04-09T17:05:09.295Z,9.56
2023-04-09T17:06:41.589Z,9.55
2023-04-09T17:08:13.664Z,9.52
2023-04-09T17:09:45.893Z,9.51
2023-04-09T17:11:18.278Z,9.50
2023-04-09T17:12:51.238Z,9.48
2023-04-09T17:14:23.307Z,9.47
2023-04-09T17:15:55.407Z,9.47
2023-04-09T17:17:27.615Z,9.48
2023-04-09T17:18:59.754Z,9.49
2023-04-09T17:20:32.145Z,9.51
2023-04-09T17:22:05.100Z,9.53
2023-04-09T17:23:38.256Z,9.55
2023-04-09T17:25:11.022Z,9.57
2023-04-09T17:26:43.219Z,9.56
2023-04-09T17:28:16.330Z,9.56
2023-04-09T17:29:50.452Z,9.55
2023-04-09T17:31:24.556Z,9.53
2023-04-09T17:32:56.898Z,9.50
2023-04-09T17:34:29.453Z,9.48
2023-04-09T17:36:02.023Z,9.48
2023-04-09T17:37:35.094Z,9.48
2023-04-09T17:39:07.235Z,9.45
2023-04-09T17:40:39.376Z,9.42
2023-04-09T17:42:14.617Z,9.41
2023-04-09T17:43:46.731Z,9.40
2023-04-09T17:45:18.882Z,9.40
2023-04-09T17:46:51.223Z,9.42
2023-04-09T17:48:23.733Z,9.40
2023-04-09T17:49:58.904Z,9.38
2023-04-09T17:51:31.023Z,9.36
2023-04-09T17:53:03.373Z,9.33
2023-04-09T17:54:36.164Z,9.33
2023-04-09T17:56:09.408Z,9.34
2023-04-09T17:57:42.136Z,9.32
2023-04-09T17:59:14.232Z,9.28
2023-04-09T18:00:46.808Z,9.28
2023-04-09T18:02:19.107Z,9.29
2023-04-09T18:03:51.500Z,9.28
2023-04-09T18:05:24.222Z,9.28
2023-04-09T18:06:57.030Z,9.28
2023-04-09T18:08:29.146Z,9.27
2023-04-09T18:10:02.568Z,9.29
2023-04-09T18:11:34.465Z,9.32
2023-04-09T18:13:06.821Z,9.26
2023-04-09T18:14:38.975Z,9.24
2023-04-09T18:16:12.710Z,9.26
2023-04-09T18:17:45.479Z,9.23
2023-04-09T18:19:17.598Z,9.20
2023-04-09T18:20:52.576Z,9.15
2023-04-09T18:22:25.716Z,9.16
2023-04-09T18:23:58.504Z,9.17
2023-04-09T18:25:30.702Z,9.18
2023-04-09T18:27:03.244Z,9.21
2023-04-09T18:28:36.021Z,9.23
2023-04-09T18:30:08.523Z,9.26
2023-04-09T18:31:40.716Z,9.26
2023-04-09T18:33:12.945Z,9.26
2023-04-09T18:34:46.115Z,9.25
2023-04-09T18:36:19.676Z,9.24
2023-04-09T18:37:51.755Z,9.28
2023-04-09T18:39:23.861Z,9.23
2023-04-09T18:40:57.173Z,9.23
2023-04-09T18:42:29.331Z,9.21
2023-04-09T18:44:01.467Z,9.20
2023-04-09T18:45:33.492Z,9.21
2023-04-09T18:47:06.807Z,9.23
2023-04-09T18:48:39.044Z,9.22
2023-04-09T18:50:12.693Z,9.23
2023-04-09T18:51:44.820Z,9.21
2023-04-09T18:53:16.944Z,9.21
2023-04-09T18:54:49.651Z,9.22
2023-04-09T18:56:21.820Z,9.21
2023-04-09T18:57:54.624Z,9.21
2023-04-09T18:59:26.802Z,9.19
2023-04-09T19:00:59.011Z,9.18
2023-04-09T19:02:31.398Z,9.16
2023-04-09T19:04:03.709Z,9.09
2023-04-09T19:05:36.653Z,9.11
2023-04-09T19:07:08.858Z,9.12
2023-04-09T19:08:41.516Z,9.18
2023-04-09T19:10:13.837Z,9.18
2023-04-09T19:11:46.329Z,9.16
2023-04-09T19:13:18.690Z,9.17
2023-04-09T19:14:50.759Z,9.18
2023-04-09T19:16:23.192Z,9.16
2023-04-09T19:17:56.974Z,9.17
2023-04-09T19:19:29.550Z,9.15
2023-04-09T19:21:01.928Z,9.16
2023-04-09T19:22:34.035Z,9.14
2023-04-09T19:24:06.364Z,9.10
2023-04-09T19:25:38.509Z,9.10
2023-04-09T19:27:12.096Z,9.10
2023-04-09T19:28:44.207Z,9.11
2023-04-09T19:30:16.568Z,9.13
2023-04-09T19:31:48.695Z,9.14
2023-04-09T19:33:22.554Z,9.17
2023-04-09T19:34:54.675Z,9.16
2023-04-09T19:36:27.262Z,9.16
2023-04-09T19:37:59.531Z,9.15
2023-04-09T19:39:31.952Z,9.14
2023-04-09T19:41:04.231Z,9.15
2023-04-09T19:42:36.614Z,9.15
2023-04-09T19:44:09.526Z,9.15
2023-04-09T19:45:43.045Z,9.15
2023-04-09T19:47:15.061Z,9.21
2023-04-09T19:48:47.889Z,9.19
2023-04-09T19:50:20.029Z,9.16
2023-04-09T19:51:52.593Z,9.16
2023-04-09T19:53:25.975Z,9.15
2023-04-09T19:54:58.566Z,9.10
2023-04-09T19:56:30.786Z,9.12
2023-04-09T19:58:03.578Z,9.13
2023-04-09T19:59:37.885Z,9.09
2023-04-09T20:01:13.010Z,9.10
2023-04-09T20:02:45.409Z,9.10
2023-04-09T20:04:17.996Z,9.09
2023-04-09T20:05:50.169Z,9.08
2023-04-09T20:07:22.633Z,9.10
2023-04-09T20:08:55.206Z,9.07
2023-04-09T20:10:27.539Z,9.05
2023-04-09T20:12:04.675Z,9.03
2023-04-09T20:13:36.819Z,8.99
2023-04-09T20:15:09.899Z,8.99
2023-04-09T20:16:42.253Z,8.97
2023-04-09T20:18:14.427Z,8.97
2023-04-09T20:19:46.978Z,8.94
2023-04-09T20:21:19.423Z,8.92
2023-04-09T20:22:56.303Z,8.91
2023-04-09T20:24:28.887Z,8.88
2023-04-09T20:26:01.317Z,8.86
2023-04-09T20:27:35.851Z,8.87
2023-04-09T20:29:08.068Z,8.81
2023-04-09T20:30:40.292Z,8.80
2023-04-09T20:32:13.506Z,8.78
2023-04-09T20:33:45.648Z,8.78
2023-04-09T20:35:17.884Z,8.77
2023-04-09T20:36:50.043Z,8.76
2023-04-09T20:38:22.837Z,8.76
2023-04-09T20:39:55.000Z,8.74
2023-04-09T20:41:27.149Z,8.73
2023-04-09T20:42:59.874Z,8.72
2023-04-09T20:44:32.202Z,8.70
2023-04-09T20:46:05.594Z,8.68
2023-04-09T20:49:19.905Z,8.57
2023-04-09T20:50:52.790Z,8.65
2023-04-09T20:52:25.468Z,8.67
2023-04-09T20:54:00.278Z,8.71
2023-04-09T20:55:32.389Z,8.67
2023-04-09T20:57:06.214Z,8.66
2023-04-09T20:58:39.230Z,8.65
2023-04-09T21:00:12.217Z,8.65
2023-04-09T21:01:44.620Z,8.61
2023-04-09T21:03:17.384Z,8.59
2023-04-09T21:04:49.632Z,8.59
2023-04-09T21:06:21.813Z,8.58
2023-04-09T21:07:53.963Z,8.56
2023-04-09T21:09:26.527Z,8.54
2023-04-09T21:10:58.904Z,8.53
2023-04-09T21:12:32.996Z,8.52
2023-04-09T21:14:07.411Z,8.52
2023-04-09T21:15:39.524Z,8.50
2023-04-09T21:17:11.819Z,8.49
2023-04-09T21:18:44.540Z,8.48
2023-04-09T21:20:17.082Z,8.45
2023-04-09T21:21:49.304Z,8.45
2023-04-09T21:23:21.563Z,8.43
2023-04-09T21:24:54.490Z,8.42
2023-04-09T21:26:26.609Z,8.40
2023-04-09T21:27:58.707Z,8.37
2023-04-09T21:29:30.884Z,8.35
2023-04-09T21:31:03.460Z,8.33
2023-04-09T21:32:35.651Z,8.31
2023-04-09T21:34:07.878Z,8.30
2023-04-09T21:35:40.259Z,8.28
2023-04-09T21:37:12.384Z,8.27
2023-04-09T21:38:44.611Z,8.28
2023-04-09T21:40:17.847Z,8.26
2023-04-09T21:41:50.104Z,8.24
2023-04-09T21:43:22.168Z,8.23
2023-04-09T21:44:56.850Z,8.25
2023-04-09T21:46:28.942Z,8.21
2023-04-09T21:48:02.344Z,8.22
2023-04-09T21:49:39.486Z,8.22
2023-04-09T21:51:12.325Z,8.24
2023-04-09T21:52:46.308Z,8.25
2023-04-09T21:54:18.397Z,8.22
2023-04-09T21:55:50.482Z,8.20
2023-04-09T21:57:23.169Z,8.17
2023-04-09T21:58:55.454Z,8.10
2023-04-09T22:00:29.458Z,8.04
2023-04-09T22:02:01.747Z,7.97
2023-04-09T22:03:35.360Z,7.93
2023-04-09T22:05:07.901Z,7.94
2023-04-09T22:06:40.624Z,7.94
2023-04-09T22:17:53.630Z,7.78
2023-04-09T22:19:26.583Z,7.72
2023-04-09T22:20:58.732Z,7.66
2023-04-09T22:22:31.026Z,7.62
2023-04-09T22:24:03.177Z,7.59
2023-04-09T22:25:35.669Z,7.58
2023-04-09T22:27:07.957Z,7.59
2023-04-09T22:28:40.083Z,7.59
2023-04-09T22:30:12.366Z,7.56
2023-04-09T22:31:44.710Z,7.56
2023-04-09T22:33:16.859Z,7.56
2023-04-09T22:34:49.067Z,7.52
2023-04-09T22:36:21.873Z,7.49
2023-04-09T22:37:53.983Z,7.50
2023-04-09T22:39:26.361Z,7.54
2023-04-09T22:40:58.477Z,7.52
2023-04-09T22:42:30.574Z,7.50
2023-04-09T22:44:03.024Z,7.49
2023-04-09T22:45:35.214Z,7.49
2023-04-09T22:47:07.604Z,7.48
2023-04-09T22:48:44.580Z,7.45
2023-04-09T22:50:17.314Z,7.42
2023-04-09T22:51:49.473Z,7.38
2023-04-09T22:53:22.181Z,7.33
2023-04-09T22:54:54.375Z,7.31
2023-04-09T22:56:26.700Z,7.28
2023-04-09T22:58:00.057Z,7.27
2023-04-09T22:59:40.456Z,7.27
2023-04-09T23:01:12.929Z,7.24
2023-04-09T23:02:45.321Z,7.22
2023-04-09T23:04:18.320Z,7.21
2023-04-09T23:05:50.618Z,7.17
2023-04-09T23:07:22.757Z,7.13
2023-04-09T23:08:55.005Z,7.13
2023-04-09T23:10:27.325Z,7.12
2023-04-09T23:11:59.543Z,7.09
2023-04-09T23:13:31.779Z,7.05
2023-04-09T23:15:04.079Z,7.02